Terminal Aerodrome Forecast
Issued by NWS Omaha/Valley, NE

Home | Current Version | Previous Version | Text Only | Print | Product List | Glossary On
Versions: 1 2 3 4 5 6 7 8 9 10 11 12 13 14 15
000
FTUS43 KOAX 270520
TAFOMA
TAF
KOMA 270520Z 2706/2806 32004KT P6SM FEW250
     FM271500 27010KT P6SM FEW250
     FM271700 30014G22KT P6SM FEW050
     FM271900 32017G25KT P6SM SCT070
     FM280000 34013KT P6SM SKC=

USA.gov is the U.S. government's official web portal to all federal, state and local government web resources and services.